createdAt,value
2019-01-21T20:19:48.715Z,101330.68
2019-01-21T20:22:22.720Z,101338.11
2019-01-21T20:24:54.857Z,101339.68
2019-01-21T20:28:04.889Z,101331.56
2019-01-21T20:30:41.933Z,101336.59
2019-01-21T20:33:14.253Z,101337.16
2019-01-21T20:35:53.634Z,101332.67
2019-01-21T20:38:26.111Z,101336.14
2019-01-21T20:40:58.193Z,101332.09
2019-01-21T20:43:30.334Z,101330.55
2019-01-21T20:46:15.678Z,101327.19
2019-01-21T20:48:51.287Z,101329.50
2019-01-21T20:51:23.677Z,101326.09
2019-01-21T20:53:55.718Z,101324.83
2019-01-21T20:56:27.733Z,101321.80
2019-01-21T20:58:59.854Z,101307.79
2019-01-21T21:01:32.003Z,101306.97
2019-01-21T21:04:04.184Z,101302.14
2019-01-21T21:06:36.225Z,101303.95
2019-01-21T21:09:09.397Z,101308.80
2019-01-21T21:11:41.534Z,101304.41
2019-01-21T21:14:13.515Z,101306.20
2019-01-21T21:16:45.501Z,101304.89
2019-01-21T21:19:17.464Z,101304.01
2019-01-21T21:21:49.544Z,101299.21
2019-01-21T21:24:21.532Z,101304.02
2019-01-21T21:26:53.593Z,101291.37
2019-01-21T21:29:25.632Z,101294.85
2019-01-21T21:31:58.806Z,101296.62
2019-01-21T21:34:30.784Z,101293.11
2019-01-21T21:37:02.907Z,101290.50
2019-01-21T21:39:34.999Z,101290.94
2019-01-21T21:42:26.244Z,101287.42
2019-01-21T21:44:58.377Z,101288.31
2019-01-21T21:47:30.538Z,101294.44
2019-01-21T21:50:02.499Z,101290.05
2019-01-21T21:52:43.146Z,101285.69
2019-01-21T21:55:15.423Z,101283.08
2019-01-21T21:57:47.622Z,101281.34
2019-01-21T22:00:22.144Z,101285.72
2019-01-21T22:02:54.576Z,101277.83
2019-01-21T22:05:26.705Z,101280.45
2019-01-21T22:07:58.828Z,101282.17
2019-01-21T22:10:31.073Z,101281.30
2019-01-21T22:13:03.182Z,101277.40
2019-01-21T22:15:36.798Z,101283.05
2019-01-21T22:18:08.783Z,101278.25
2019-01-21T22:20:40.821Z,101275.62
2019-01-21T22:23:12.925Z,101282.62
2019-01-21T22:25:44.961Z,101271.22
2019-01-21T22:28:16.984Z,101271.66
2019-01-21T22:30:57.063Z,101277.33
2019-01-21T22:33:32.535Z,101281.69
2019-01-21T22:36:04.634Z,101273.82
2019-01-21T22:38:36.686Z,101272.95
2019-01-21T22:41:08.845Z,101272.05
2019-01-21T22:44:29.868Z,101261.13
2019-01-21T22:47:25.017Z,101260.68
2019-01-21T22:50:18.296Z,101261.16
2019-01-21T22:53:08.032Z,101245.81
2019-01-21T22:56:18.344Z,101242.75
2019-01-21T22:59:03.088Z,101242.77
2019-01-21T23:02:20.945Z,101234.00
2019-01-21T23:05:23.191Z,101227.45
2019-01-21T23:07:53.913Z,101224.42
2019-01-21T23:10:25.897Z,101221.78
2019-01-21T23:12:58.234Z,101213.05
2019-01-21T23:15:30.253Z,101209.94
2019-01-21T23:18:04.300Z,101205.58
2019-01-21T23:20:36.076Z,101206.44
2019-01-21T23:23:08.700Z,101209.52
2019-01-21T23:25:40.697Z,101206.47
2019-01-21T23:28:12.788Z,101209.96
2019-01-21T23:30:44.800Z,101213.52
2019-01-21T23:33:16.880Z,101210.44
2019-01-21T23:35:48.885Z,101210.45
2019-01-21T23:38:20.956Z,101210.42
2019-01-21T23:40:53.608Z,101202.95
2019-01-21T23:43:25.755Z,101203.39
2019-01-21T23:45:57.761Z,101199.88
2019-01-21T23:48:29.787Z,101189.83
2019-01-21T23:51:01.769Z,101187.69
2019-01-21T23:53:33.773Z,101180.66
2019-01-21T23:56:06.812Z,101190.75
2019-01-21T23:58:38.897Z,101191.17
